| time (UTC) | temp C | wind direction | speed KPH | gust KPH | rain 1hr cm | rain 24hr cm | rain mn cm | humidity % | barometer mb |
| 20260903143009 | 19 | 301 | 0.0 | 0.0 | 0.00 | 1.32 | 1.30 | 90 | 1013.8 |
| 20260903141509 | 18 | 302 | 0.0 | 0.0 | 0.00 | 1.32 | 1.30 | 90 | 1014.2 |
| 20260903140005 | 18 | 302 | 0.0 | 0.0 | 0.00 | 1.32 | 1.30 | 90 | 1014.3 |
| 20260903134600 | 18 | 302 | 0.0 | 0.0 | 0.00 | 1.32 | 1.30 | 90 | 1014.4 |
| 20260903133109 | 18 | 301 | 0.0 | 0.0 | 0.00 | 1.32 | 1.30 | 90 | 1014.5 |
| 20260903131608 | 17 | 302 | 0.0 | 0.0 | 0.00 | 1.32 | 1.30 | 90 | 1014.5 |
| 20260903130112 | 17 | 301 | 0.0 | 0.0 | 0.00 | 1.32 | 1.30 | 90 | 1014.6 |
| 20260903124552 | 17 | 301 | 0.0 | 0.0 | 0.00 | 1.32 | 1.30 | 90 | 1014.6 |
| 20260903123050 | 17 | 302 | 0.0 | 0.0 | 0.00 | 1.32 | 1.30 | 89 | 1014.8 |
| 20260903121549 | 17 | 301 | 0.0 | 0.0 | 0.00 | 1.32 | 1.30 | 90 | 1014.8 |
| 20260903120049 | 17 | 301 | 0.0 | 0.0 | 0.00 | 1.32 | 1.30 | 89 | 1015.1 |
| 20260903114636 | 17 | 301 | 0.0 | 0.0 | 0.00 | 1.32 | 1.30 | 89 | 1015.3 |
| 20260903113041 | 17 | 301 | 0.0 | 0.0 | 0.00 | 1.32 | 1.30 | 89 | 1015.4 |
| 20260903111518 | 17 | 301 | 0.0 | 0.0 | 0.00 | 1.32 | 1.30 | 89 | 1015.3 |
| 20260903110015 | 17 | 301 | 0.0 | 0.0 | 0.00 | 1.32 | 1.30 | 89 | 1015.0 |
| 20260903104514 | 17 | 301 | 0.0 | 0.0 | 0.03 | 1.32 | 1.30 | 89 | 1015.0 |
| 20260903103013 | 17 | 302 | 0.0 | 6.4 | 0.03 | 1.32 | 1.30 | 89 | 1015.0 |
| 20260903101543 | 17 | 302 | 0.0 | 9.7 | 0.03 | 1.32 | 1.30 | 89 | 1014.9 |
| 20260903100042 | 17 | 281 | 6.4 | 12.9 | 0.05 | 1.32 | 1.30 | 89 | 1014.9 |
| 20260903094538 | 17 | 118 | 0.0 | 1.6 | 0.03 | 1.30 | 1.27 | 89 | 1014.8 |
| 20260903093042 | 17 | 117 | 0.0 | 6.4 | 0.03 | 1.30 | 1.27 | 89 | 1014.7 |
| 20260903091539 | 16 | 108 | 0.0 | 0.0 | 0.03 | 1.30 | 1.27 | 89 | 1015.1 |
| 20260903090040 | 16 | 108 | 0.0 | 0.0 | 0.03 | 1.27 | 1.24 | 89 | 1015.1 |
| 20260903084532 | 16 | 107 | 0.0 | 0.0 | 0.33 | 1.27 | 1.24 | 89 | 1015.1 |
| 20260903083132 | 16 | 107 | 0.0 | 0.0 | 0.71 | 1.27 | 1.24 | 89 | 1014.8 |
| 20260903081528 | 16 | 108 | 0.0 | 0.0 | 1.07 | 1.27 | 1.24 | 88 | 1015.3 |
| 20260903080027 | 16 | 108 | 0.0 | 0.0 | 1.22 | 1.24 | 1.22 | 88 | 1015.4 |
| 20260903074521 | 16 | 108 | 0.0 | 0.0 | 0.89 | 0.91 | 0.89 | 87 | 1015.6 |
| 20260903073018 | 16 | 108 | 0.0 | 0.0 | 0.48 | 0.51 | 0.48 | 86 | 1016.0 |
| 20260903071516 | 17 | 108 | 0.0 | 0.0 | 0.15 | 0.18 | 0.15 | 84 | 1016.3 |
| 20260903070015 | 17 | 108 | 0.0 | 1.6 | 0.00 | 0.03 | 0.00 | 83 | 1016.2 |
| 20260903064543 | 17 | 108 | 0.0 | 0.0 | 0.00 | 0.03 | 0.00 | 83 | 1016.3 |
| 20260903063039 | 17 | 108 | 0.0 | 0.0 | 0.00 | 0.03 | 0.00 | 83 | 1016.7 |
| 20260903061506 | 17 | 108 | 0.0 | 0.0 | 0.00 | 0.03 | 0.00 | 83 | 1017.3 |
| 20260903060004 | 17 | 108 | 0.0 | 0.0 | 0.00 | 0.03 | 0.00 | 83 | 1017.5 |
| 20260903054601 | 17 | 108 | 0.0 | 0.0 | 0.00 | 0.03 | 0.00 | 83 | 1017.7 |
| 20260903053030 | 17 | 108 | 0.0 | 0.0 | 0.00 | 0.03 | 0.00 | 83 | 1017.9 |
| 20260903051530 | 17 | 108 | 0.0 | 0.0 | 0.00 | 0.03 | 0.00 | 82 | 1017.7 |
| 20260903050026 | 17 | 108 | 0.0 | 0.0 | 0.00 | 0.03 | 0.00 | 82 | 1018.1 |
| 20260903044524 | 17 | 108 | 0.0 | 0.0 | 0.00 | 0.03 | 0.00 | 81 | 1018.3 |
| 20260903043034 | 17 | 108 | 0.0 | 0.0 | 0.00 | 0.03 | 0.00 | 81 | 1018.2 |
| 20260903041529 | 17 | 108 | 0.0 | 0.0 | 0.00 | 0.03 | 0.00 | 81 | 1018.3 |
| 20260903040021 | 17 | 108 | 0.0 | 0.0 | 0.00 | 0.03 | 0.00 | 80 | 1018.4 |
| 20260903034527 | 17 | 108 | 0.0 | 0.0 | 0.00 | 0.03 | 0.00 | 80 | 1018.3 |
| 20260903033018 | 17 | 108 | 0.0 | 0.0 | 0.00 | 0.03 | 0.00 | 81 | 1018.3 |
| 20260903031515 | 17 | 108 | 0.0 | 0.0 | 0.00 | 0.03 | 0.00 | 80 | 1018.5 |
| 20260903030011 | 17 | 108 | 0.0 | 0.0 | 0.00 | 0.03 | 0.00 | 80 | 1018.9 |
| 20260903024509 | 17 | 108 | 0.0 | 1.6 | 0.00 | 0.03 | 0.00 | 80 | 1019.1 |
| 20260903023008 | 17 | 109 | 0.0 | 0.0 | 0.00 | 0.03 | 0.00 | 79 | 1019.2 |
| 20260903020006 | 17 | 109 | 0.0 | 0.0 | 0.00 | 0.03 | 0.00 | 78 | 1019.7 |
| 20260903014504 | 17 | 109 | 0.0 | 0.0 | 0.00 | 0.03 | 0.00 | 78 | 1019.3 |
| 20260903013003 | 18 | 108 | 0.0 | 0.0 | 0.00 | 0.03 | 0.00 | 78 | 1019.1 |
| 20260903011501 | 18 | 109 | 0.0 | 0.0 | 0.00 | 0.03 | 0.00 | 79 | 1019.0 |
| 20260903010056 | 18 | 109 | 0.0 | 1.6 | 0.00 | 0.03 | 0.00 | 80 | 1019.3 |
| 20260903004556 | 18 | 108 | 0.0 | 0.0 | 0.00 | 0.03 | 0.00 | 80 | 1019.6 |
| 20260903003053 | 18 | 108 | 0.0 | 0.0 | 0.00 | 0.03 | 0.00 | 79 | 1019.5 |
| 20260903001553 | 18 | 108 | 0.0 | 0.0 | 0.00 | 0.03 | 0.00 | 78 | 1019.4 |
| 20260903000049 | 18 | 108 | 0.0 | 0.0 | 0.00 | 0.03 | 0.00 | 77 | 1019.5 |
| 20260902234549 | 19 | 108 | 0.0 | 0.0 | 0.00 | 0.03 | 0.00 | 77 | 1019.7 |
| 20260902233041 | 19 | 108 | 0.0 | 0.0 | 0.00 | 0.03 | 0.00 | 76 | 1020.0 |
| 20260902231541 | 20 | 108 | 0.0 | 0.0 | 0.00 | 0.03 | 0.00 | 74 | 1020.4 |
| 20260902230036 | 20 | 108 | 0.0 | 0.0 | 0.00 | 0.03 | 0.00 | 74 | 1020.3 |
| 20260902224533 | 20 | 108 | 0.0 | 0.0 | 0.00 | 0.03 | 0.00 | 73 | 1020.5 |
| 20260902223031 | 20 | 108 | 0.0 | 0.0 | 0.00 | 0.03 | 0.00 | 72 | 1020.6 |
| 20260902221533 | 21 | 108 | 0.0 | 0.0 | 0.00 | 0.03 | 0.03 | 71 | 1020.6 |
| 20260902220031 | 21 | 108 | 0.0 | 0.0 | 0.00 | 0.03 | 0.03 | 70 | 1020.3 |
| 20260902214526 | 22 | 108 | 0.0 | 0.0 | 0.00 | 0.03 | 0.03 | 67 | 1020.1 |
| 20260902213028 | 22 | 157 | 0.0 | 4.8 | 0.00 | 0.03 | 0.03 | 68 | 1019.9 |
| 20260902211522 | 22 | 132 | 0.0 | 6.4 | 0.00 | 0.15 | 0.03 | 67 | 1019.5 |
| 20260902210023 | 22 | 97 | 0.0 | 1.6 | 0.00 | 0.15 | 0.03 | 71 | 1019.5 |
| 20260902204521 | 22 | 98 | 0.0 | 1.6 | 0.00 | 0.15 | 0.03 | 72 | 1019.7 |
| 20260902203016 | 22 | 98 | 0.0 | 0.0 | 0.00 | 0.15 | 0.03 | 71 | 1020.1 |
| 20260902201519 | 22 | 98 | 0.0 | 0.0 | 0.00 | 0.18 | 0.03 | 73 | 1020.5 |
| 20260902200013 | 22 | 98 | 0.0 | 0.0 | 0.00 | 0.18 | 0.03 | 72 | 1020.4 |
| 20260902194520 | 22 | 98 | 0.0 | 1.6 | 0.00 | 0.18 | 0.03 | 71 | 1020.4 |
| 20260902193013 | 22 | 99 | 0.0 | 1.6 | 0.00 | 0.18 | 0.03 | 69 | 1020.4 |
| 20260902191514 | 22 | 97 | 0.0 | 0.0 | 0.00 | 0.33 | 0.03 | 69 | 1020.5 |
| 20260902190108 | 22 | 99 | 0.0 | 4.8 | 0.00 | 0.33 | 0.03 | 68 | 1020.7 |
| 20260902184508 | 23 | 193 | 0.0 | 1.6 | 0.03 | 0.33 | 0.03 | 68 | 1020.7 |
| 20260902183006 | 22 | 88 | 0.0 | 4.8 | 0.03 | 0.33 | 0.03 | 68 | 1020.8 |
| 20260902181506 | 22 | 82 | 0.0 | 1.6 | 0.03 | 0.38 | 0.03 | 68 | 1020.8 |
| 20260902180035 | 23 | 82 | 0.0 | 12.9 | 0.03 | 0.38 | 0.03 | 68 | 1020.6 |
| 20260902174533 | 22 | 167 | 0.0 | 9.7 | 0.00 | 0.36 | 0.00 | 70 | 1020.6 |
| 20260902173101 | 22 | 87 | 0.0 | 1.6 | 0.00 | 0.36 | 0.00 | 70 | 1020.8 |
| 20260902173000 | 22 | 87 | 0.0 | 1.6 | 0.00 | 0.36 | 0.00 | 70 | 1020.9 |
| 20260902171608 | 22 | 98 | 0.0 | 0.0 | 0.00 | 0.71 | 0.00 | 69 | 1021.0 |
| 20260902170056 | 22 | 168 | 0.0 | 14.5 | 0.00 | 0.71 | 0.00 | 69 | 1021.0 |
| 20260902164555 | 22 | 74 | 0.0 | 9.7 | 0.00 | 0.71 | 0.00 | 70 | 1021.2 |
| 20260902163055 | 21 | 107 | 0.0 | 6.4 | 0.00 | 0.71 | 0.00 | 72 | 1021.3 |
| 20260902161551 | 21 | 114 | 0.0 | 6.4 | 0.00 | 0.81 | 0.00 | 71 | 1021.4 |
| 20260902160106 | 21 | 120 | 0.0 | 1.6 | 0.00 | 0.81 | 0.00 | 72 | 1021.5 |
| 20260902154555 | 21 | 125 | 0.0 | 9.7 | 0.00 | 0.81 | 0.00 | 73 | 1021.6 |
| 20260902153044 | 20 | 90 | 0.0 | 1.6 | 0.00 | 0.81 | 0.00 | 74 | 1022.0 |
| 20260902151542 | 20 | 54 | 0.0 | 1.6 | 0.00 | 1.02 | 0.00 | 77 | 1021.9 |
| 20260902150040 | 20 | 105 | 0.0 | 0.0 | 0.00 | 1.02 | 0.00 | 79 | 1022.0 |
| 20260902144510 | 20 | 105 | 0.0 | 1.6 | 0.00 | 1.02 | 0.00 | 81 | 1022.0 |